createdAt,value
2018-09-13T00:00:58.579Z,95.80
2018-09-13T00:03:27.520Z,96.90
2018-09-13T00:05:56.552Z,97.80
2018-09-13T00:08:25.491Z,98.40
2018-09-13T00:10:54.392Z,99.00
2018-09-13T00:13:23.392Z,99.60
2018-09-13T00:15:52.268Z,99.90
2018-09-13T00:18:21.185Z,99.90
2018-09-13T00:20:50.152Z,99.90
2018-09-13T00:23:19.066Z,99.90
2018-09-13T00:25:48.007Z,99.90
2018-09-13T00:28:16.906Z,99.90
2018-09-13T00:30:45.818Z,99.90
2018-09-13T00:33:14.712Z,99.90
2018-09-13T00:35:43.784Z,99.90
2018-09-13T00:38:12.701Z,99.90
2018-09-13T00:40:41.687Z,99.90
2018-09-13T00:43:10.600Z,99.90
2018-09-13T00:45:39.525Z,99.90
2018-09-13T00:48:08.528Z,99.90
2018-09-13T00:50:37.467Z,99.90
2018-09-13T00:53:06.430Z,99.90
2018-09-13T00:55:35.432Z,99.90
2018-09-13T00:58:04.365Z,99.90
2018-09-13T01:00:33.392Z,99.90
2018-09-13T01:03:02.390Z,99.90
2018-09-13T01:05:31.304Z,99.90
2018-09-13T01:08:00.177Z,99.90
2018-09-13T01:10:29.133Z,99.90
2018-09-13T01:12:58.028Z,99.90
2018-09-13T01:15:27.023Z,99.90
2018-09-13T01:17:55.955Z,99.90
2018-09-13T01:20:24.852Z,99.90
2018-09-13T01:22:53.764Z,99.90
2018-09-13T01:25:22.650Z,99.90
2018-09-13T01:27:51.573Z,99.90
2018-09-13T01:30:20.539Z,99.90
2018-09-13T01:32:49.437Z,99.90
2018-09-13T01:35:18.335Z,99.90
2018-09-13T01:37:47.229Z,99.90
2018-09-13T01:40:16.158Z,99.90
2018-09-13T01:42:45.199Z,99.90
2018-09-13T01:45:14.173Z,99.90
2018-09-13T01:47:43.115Z,99.90
2018-09-13T01:50:12.025Z,99.90
2018-09-13T01:52:40.923Z,99.90
2018-09-13T01:55:09.863Z,99.90
2018-09-13T01:57:38.762Z,99.90
2018-09-13T02:00:07.756Z,99.90
2018-09-13T02:02:36.688Z,99.90
2018-09-13T02:05:05.753Z,99.90
2018-09-13T02:07:34.669Z,99.90
2018-09-13T02:10:03.660Z,99.90
2018-09-13T02:12:32.550Z,99.90
2018-09-13T02:15:01.484Z,99.90
2018-09-13T02:17:30.403Z,99.90
2018-09-13T02:19:59.352Z,99.90
2018-09-13T02:22:28.279Z,99.90
2018-09-13T02:24:57.265Z,99.90
2018-09-13T02:27:26.485Z,99.90
2018-09-13T02:29:55.363Z,99.90
2018-09-13T02:32:24.627Z,99.90
2018-09-13T02:34:53.591Z,99.90
2018-09-13T02:37:22.538Z,99.90
2018-09-13T02:39:51.425Z,99.90
2018-09-13T02:42:20.409Z,99.90
2018-09-13T02:44:49.334Z,99.90
2018-09-13T02:47:18.303Z,99.90
2018-09-13T02:49:47.204Z,99.90
2018-09-13T02:52:16.227Z,99.90
2018-09-13T02:54:45.129Z,99.90
2018-09-13T02:57:14.136Z,99.90
2018-09-13T02:59:43.071Z,99.90
2018-09-13T03:02:11.974Z,99.90
2018-09-13T03:04:40.889Z,99.90
2018-09-13T03:07:10.046Z,99.90
2018-09-13T03:09:38.953Z,99.90
2018-09-13T03:12:07.808Z,99.90
2018-09-13T03:14:36.733Z,99.90
2018-09-13T03:17:05.619Z,99.90
2018-09-13T03:19:34.917Z,99.90
2018-09-13T03:22:03.809Z,99.90
2018-09-13T03:24:32.708Z,99.90
2018-09-13T03:27:01.596Z,99.90
2018-09-13T03:29:30.654Z,99.90
2018-09-13T03:31:59.812Z,99.90
2018-09-13T03:34:28.702Z,99.90
2018-09-13T03:36:57.628Z,99.90
2018-09-13T03:39:26.514Z,99.90
2018-09-13T03:41:55.444Z,99.90
2018-09-13T03:44:24.599Z,99.90
2018-09-13T03:46:53.553Z,99.90
2018-09-13T03:49:22.422Z,99.90
2018-09-13T03:51:51.430Z,99.90
2018-09-13T03:54:20.315Z,99.90
2018-09-13T03:56:49.233Z,99.90
2018-09-13T03:59:18.286Z,99.90
2018-09-13T04:01:47.157Z,99.90
2018-09-13T04:04:16.210Z,99.90
2018-09-13T04:06:45.112Z,99.90
2018-09-13T04:09:14.201Z,99.90
2018-09-13T04:11:43.083Z,99.90
2018-09-13T04:14:12.163Z,99.90
2018-09-13T04:16:41.095Z,99.90
2018-09-13T04:19:16.675Z,99.90
2018-09-13T04:21:45.624Z,99.90
2018-09-13T04:24:14.540Z,99.90
2018-09-13T04:26:43.404Z,99.90
2018-09-13T04:29:12.466Z,99.90
2018-09-13T04:31:41.401Z,99.90
2018-09-13T04:34:10.337Z,99.90
2018-09-13T04:36:39.653Z,99.90
2018-09-13T04:39:09.253Z,99.90
2018-09-13T04:41:38.250Z,99.90
2018-09-13T04:44:07.185Z,99.90
2018-09-13T04:46:36.125Z,99.90
2018-09-13T04:49:05.684Z,99.90
2018-09-13T04:51:34.651Z,99.90
2018-09-13T04:54:03.914Z,99.90
2018-09-13T04:56:32.824Z,99.90
2018-09-13T04:59:01.753Z,99.90
2018-09-13T05:01:30.687Z,99.90
2018-09-13T05:03:59.556Z,99.90
2018-09-13T05:06:28.544Z,99.90
2018-09-13T05:08:57.545Z,99.90
2018-09-13T05:11:26.470Z,99.90
2018-09-13T05:13:55.427Z,99.90
2018-09-13T05:16:24.368Z,99.90
2018-09-13T05:18:53.343Z,99.90
2018-09-13T05:21:22.232Z,99.90
2018-09-13T05:23:51.150Z,99.90
2018-09-13T05:26:20.077Z,99.90
2018-09-13T05:28:49.089Z,99.90
2018-09-13T05:31:18.104Z,99.90
2018-09-13T05:33:47.047Z,99.90
2018-09-13T05:36:15.960Z,99.90
2018-09-13T05:38:44.887Z,96.40
2018-09-13T05:41:14.128Z,93.10
2018-09-13T05:43:43.103Z,87.60
2018-09-13T05:46:12.059Z,80.10
2018-09-13T05:48:41.199Z,76.50
2018-09-13T05:51:10.402Z,75.80
2018-09-13T05:53:39.343Z,68.30
2018-09-13T05:56:08.618Z,65.10
2018-09-13T05:58:37.540Z,61.80
2018-09-13T06:01:06.467Z,55.40
2018-09-13T06:03:35.378Z,48.00
2018-09-13T06:06:04.423Z,47.70
2018-09-13T06:08:33.304Z,45.60
2018-09-13T06:11:02.251Z,41.10
2018-09-13T06:13:31.263Z,39.30
2018-09-13T06:16:00.217Z,38.50
2018-09-13T06:18:29.193Z,39.20
2018-09-13T06:20:58.169Z,39.40
2018-09-13T06:23:27.131Z,38.10
2018-09-13T06:25:56.114Z,37.80
2018-09-13T06:28:25.022Z,37.10
2018-09-13T06:30:53.936Z,35.10
2018-09-13T06:33:22.891Z,31.40
2018-09-13T06:35:51.771Z,31.90
2018-09-13T06:38:20.846Z,34.10
2018-09-13T06:40:49.695Z,34.40
2018-09-13T06:43:18.623Z,36.90
2018-09-13T06:45:47.578Z,34.40
2018-09-13T06:48:16.496Z,33.00
2018-09-13T06:50:45.437Z,35.30
2018-09-13T06:53:14.340Z,37.40
2018-09-13T06:55:43.374Z,37.30
2018-09-13T06:58:12.336Z,38.00
2018-09-13T07:00:41.369Z,35.50
2018-09-13T07:03:10.333Z,30.70
2018-09-13T07:05:39.289Z,28.00
2018-09-13T07:08:08.234Z,29.00
2018-09-13T07:10:37.264Z,29.80
2018-09-13T07:13:06.191Z,31.00
2018-09-13T07:15:35.072Z,32.00
2018-09-13T07:18:04.010Z,31.90
2018-09-13T07:20:33.427Z,32.00
2018-09-13T07:23:02.358Z,32.80
2018-09-13T07:25:31.267Z,32.10
2018-09-13T07:28:00.187Z,31.90
2018-09-13T07:30:29.087Z,31.50
2018-09-13T07:32:58.104Z,29.60
2018-09-13T07:35:27.079Z,28.10
2018-09-13T07:37:56.051Z,28.90
2018-09-13T07:40:24.980Z,28.00
2018-09-13T07:42:53.961Z,27.10
2018-09-13T07:45:22.938Z,27.40
2018-09-13T07:47:51.848Z,28.60
2018-09-13T07:50:20.797Z,29.90
2018-09-13T07:52:49.679Z,32.80
2018-09-13T07:55:18.600Z,30.00
2018-09-13T07:57:47.477Z,27.20
2018-09-13T08:00:16.470Z,27.60
2018-09-13T08:02:45.381Z,29.00
2018-09-13T08:05:14.313Z,28.80
2018-09-13T08:07:43.255Z,28.00
2018-09-13T08:10:12.194Z,27.00
2018-09-13T08:12:41.080Z,25.50
2018-09-13T08:15:10.139Z,23.80
2018-09-13T08:17:39.084Z,23.40
2018-09-13T08:20:08.029Z,23.20
2018-09-13T08:22:36.979Z,22.20
2018-09-13T08:25:06.005Z,22.40
2018-09-13T08:27:34.980Z,23.60
2018-09-13T08:30:04.320Z,26.00
2018-09-13T08:32:33.114Z,26.30
2018-09-13T08:35:02.106Z,26.30
2018-09-13T08:37:30.985Z,26.00
2018-09-13T08:40:00.064Z,25.90
2018-09-13T08:42:29.005Z,24.80
2018-09-13T08:44:58.003Z,24.70
2018-09-13T08:47:27.017Z,26.50
2018-09-13T08:49:55.998Z,26.70
2018-09-13T08:52:24.929Z,25.10
2018-09-13T08:54:53.843Z,24.20
2018-09-13T08:57:22.801Z,24.90
2018-09-13T08:59:51.730Z,23.60
2018-09-13T09:02:20.632Z,23.60
2018-09-13T09:04:49.556Z,24.10
2018-09-13T09:07:18.529Z,25.80
2018-09-13T09:09:47.452Z,26.10
2018-09-13T09:12:16.385Z,25.60
2018-09-13T09:14:45.351Z,26.10
2018-09-13T09:17:14.229Z,26.70
2018-09-13T09:19:43.184Z,28.90
2018-09-13T09:22:12.133Z,29.30
2018-09-13T09:24:41.039Z,28.60
2018-09-13T09:27:09.955Z,30.50
2018-09-13T09:29:39.507Z,34.60
2018-09-13T09:32:08.639Z,37.00
2018-09-13T09:34:37.544Z,40.70
2018-09-13T09:37:06.570Z,43.80
2018-09-13T09:39:35.482Z,44.30
2018-09-13T09:42:04.412Z,44.70
2018-09-13T09:44:33.347Z,44.00
2018-09-13T09:47:02.292Z,44.40
2018-09-13T09:49:31.184Z,43.40
2018-09-13T09:52:00.562Z,44.60
2018-09-13T09:54:29.130Z,44.10
2018-09-13T09:56:58.038Z,43.70
2018-09-13T09:59:26.988Z,43.90
2018-09-13T10:02:01.088Z,43.40
2018-09-13T10:04:30.097Z,45.00
2018-09-13T10:06:59.276Z,45.10
2018-09-13T10:09:28.226Z,45.10
2018-09-13T10:11:57.129Z,45.50
2018-09-13T10:14:26.072Z,46.00
2018-09-13T10:17:00.169Z,45.90
2018-09-13T10:19:34.412Z,46.50
2018-09-13T10:22:08.765Z,46.40
2018-09-13T10:24:42.945Z,47.00
2018-09-13T10:27:16.986Z,45.10
2018-09-13T10:29:51.102Z,43.40
2018-09-13T10:32:25.275Z,43.20
2018-09-13T10:34:59.505Z,43.90
2018-09-13T10:37:33.647Z,43.60
2018-09-13T10:40:07.646Z,46.20
2018-09-13T10:42:41.803Z,45.40
2018-09-13T10:45:16.026Z,45.90
2018-09-13T10:47:56.492Z,45.20
2018-09-13T10:50:24.402Z,45.30
2018-09-13T10:52:56.813Z,45.10
2018-09-13T10:55:25.891Z,45.30
2018-09-13T10:57:54.919Z,44.00
2018-09-13T11:00:23.865Z,44.00
2018-09-13T11:02:52.905Z,44.20
2018-09-13T11:05:21.961Z,44.50
2018-09-13T11:07:51.032Z,44.90
2018-09-13T11:10:20.021Z,44.90
2018-09-13T11:12:53.416Z,44.00
2018-09-13T11:15:27.453Z,43.90
2018-09-13T11:17:56.404Z,45.10
2018-09-13T11:20:25.329Z,44.40
2018-09-13T11:22:54.625Z,45.30
2018-09-13T11:25:24.633Z,46.00
2018-09-13T11:27:53.938Z,45.50
2018-09-13T11:30:23.091Z,45.60
2018-09-13T11:32:52.180Z,46.40
2018-09-13T11:35:21.128Z,46.10
2018-09-13T11:37:50.064Z,45.50
2018-09-13T11:40:19.240Z,46.40
2018-09-13T11:42:48.263Z,46.90
2018-09-13T11:45:17.500Z,47.70
2018-09-13T11:47:46.421Z,48.50
2018-09-13T11:50:15.433Z,48.00
2018-09-13T11:52:44.368Z,47.00
2018-09-13T11:55:13.299Z,46.40
2018-09-13T11:57:42.236Z,46.90
2018-09-13T12:00:11.192Z,46.00
2018-09-13T12:02:40.179Z,47.80
2018-09-13T12:05:09.170Z,47.30
2018-09-13T12:07:38.116Z,46.50
2018-09-13T12:10:07.273Z,47.10
2018-09-13T12:12:36.228Z,46.40
2018-09-13T12:15:05.308Z,46.70
2018-09-13T12:17:34.249Z,46.10
2018-09-13T12:20:03.182Z,44.50
2018-09-13T12:22:32.182Z,45.00
2018-09-13T12:25:01.140Z,45.70
2018-09-13T12:27:30.157Z,44.50
2018-09-13T12:29:59.172Z,44.30
2018-09-13T12:32:28.198Z,44.20
2018-09-13T12:34:57.149Z,46.00
2018-09-13T12:37:26.140Z,47.00
2018-09-13T12:39:55.073Z,47.30
2018-09-13T12:42:24.031Z,47.30
2018-09-13T12:44:53.125Z,45.80
2018-09-13T12:47:22.054Z,45.30
2018-09-13T12:49:51.092Z,46.10
2018-09-13T12:52:20.128Z,46.10
2018-09-13T12:54:49.152Z,45.20
2018-09-13T12:57:18.160Z,45.40
2018-09-13T12:59:47.209Z,46.10
2018-09-13T13:02:16.260Z,46.60
2018-09-13T13:04:46.204Z,46.90
2018-09-13T13:07:15.212Z,47.70
2018-09-13T13:09:44.167Z,48.50
2018-09-13T13:12:13.096Z,48.70
2018-09-13T13:14:42.031Z,48.40
2018-09-13T13:17:11.089Z,47.90
2018-09-13T13:19:40.017Z,46.60
2018-09-13T13:22:08.941Z,46.60
2018-09-13T13:24:37.893Z,47.80
2018-09-13T13:27:06.850Z,47.80
2018-09-13T13:29:36.174Z,47.80
2018-09-13T13:32:05.136Z,47.60
2018-09-13T13:34:34.077Z,47.60
2018-09-13T13:37:03.030Z,48.20
2018-09-13T13:39:32.039Z,48.90
2018-09-13T13:42:00.935Z,49.20
2018-09-13T13:44:29.886Z,48.20
2018-09-13T13:46:58.928Z,47.30
2018-09-13T13:49:27.892Z,46.10
2018-09-13T13:51:56.878Z,45.30
2018-09-13T13:54:25.796Z,45.10
2018-09-13T13:56:54.728Z,44.30
2018-09-13T13:59:23.648Z,45.10
2018-09-13T14:01:52.653Z,45.40
2018-09-13T14:04:21.529Z,46.40
2018-09-13T19:42:13.320Z,66.80
2018-09-13T19:44:42.365Z,66.80
2018-09-13T19:47:11.412Z,66.70
2018-09-13T19:49:40.279Z,66.70
2018-09-13T19:52:09.278Z,66.10
2018-09-13T19:54:38.586Z,65.70
2018-09-13T19:57:07.581Z,65.80
2018-09-13T19:59:36.462Z,65.40
2018-09-13T20:02:05.472Z,65.70
2018-09-13T20:04:34.486Z,65.80
2018-09-13T20:07:03.390Z,65.40
2018-09-13T20:09:32.323Z,69.00
2018-09-13T20:12:01.293Z,84.80
2018-09-13T20:14:30.213Z,88.00
2018-09-13T20:16:59.135Z,91.70
2018-09-13T20:19:28.110Z,90.80
2018-09-13T20:21:57.004Z,94.10
2018-09-13T20:24:25.926Z,92.70
2018-09-13T20:26:54.811Z,90.40
2018-09-13T20:29:23.734Z,91.40
2018-09-13T20:31:52.635Z,85.80
2018-09-13T20:34:21.588Z,85.10
2018-09-13T20:36:50.620Z,78.80
2018-09-13T20:39:19.577Z,78.50
2018-09-13T20:41:49.374Z,77.30
2018-09-13T20:44:18.349Z,75.60
2018-09-13T20:46:47.286Z,78.10
2018-09-13T20:49:16.528Z,74.50
2018-09-13T20:51:45.695Z,73.10
2018-09-13T20:54:14.683Z,72.50
2018-09-13T20:56:43.712Z,72.10
2018-09-13T20:59:12.604Z,73.00
2018-09-13T21:01:41.517Z,73.00
2018-09-13T21:04:11.047Z,72.30
2018-09-13T21:06:40.018Z,72.70
2018-09-13T21:09:10.841Z,72.40
2018-09-13T21:11:39.914Z,71.50
2018-09-13T21:14:08.836Z,71.70
2018-09-13T21:16:37.794Z,70.00
2018-09-13T21:19:06.720Z,70.10
2018-09-13T21:21:35.724Z,70.30
2018-09-13T21:24:04.706Z,71.00
2018-09-13T21:26:33.650Z,71.30
2018-09-13T21:29:02.743Z,71.00
2018-09-13T21:31:31.694Z,71.20
2018-09-13T21:34:00.618Z,71.30
2018-09-13T21:36:29.520Z,71.60
2018-09-13T21:38:58.459Z,71.70
2018-09-13T21:41:27.736Z,71.70
2018-09-13T21:43:56.732Z,71.70
2018-09-13T21:46:25.695Z,72.10
2018-09-13T21:48:54.654Z,72.40
2018-09-13T21:51:23.608Z,70.40
2018-09-13T21:53:52.621Z,70.70
2018-09-13T21:56:21.518Z,70.00
2018-09-13T21:58:50.507Z,70.00
2018-09-13T22:01:19.518Z,70.30
2018-09-13T22:03:48.397Z,71.50
2018-09-13T22:06:17.302Z,71.60
2018-09-13T22:08:46.202Z,72.20
2018-09-13T22:11:15.200Z,72.30
2018-09-13T22:13:44.091Z,72.60
2018-09-13T22:16:12.998Z,72.20
2018-09-13T22:18:41.926Z,72.40
2018-09-13T22:21:10.858Z,73.00
2018-09-13T22:23:39.815Z,73.00
2018-09-13T22:26:08.844Z,73.90
2018-09-13T22:28:37.744Z,74.90
2018-09-13T22:31:06.698Z,75.00
2018-09-13T22:33:35.652Z,75.80
2018-09-13T22:36:04.547Z,81.20
2018-09-13T22:38:33.467Z,86.30
2018-09-13T22:41:02.351Z,90.10
2018-09-13T22:43:36.627Z,91.80
2018-09-13T22:46:05.499Z,92.60
2018-09-13T22:48:34.446Z,93.50
2018-09-13T22:51:03.372Z,94.60
2018-09-13T22:53:32.358Z,96.50
2018-09-13T22:56:01.303Z,97.90
2018-09-13T22:58:30.235Z,98.70
2018-09-13T23:00:59.156Z,99.90
2018-09-13T23:03:28.127Z,99.90
2018-09-13T23:05:57.047Z,99.90
2018-09-13T23:08:25.952Z,99.90
2018-09-13T23:10:54.910Z,99.90
2018-09-13T23:13:24.096Z,99.90
2018-09-13T23:15:53.097Z,99.90
2018-09-13T23:18:22.042Z,99.90
2018-09-13T23:20:51.076Z,99.90
2018-09-13T23:23:20.034Z,99.90
2018-09-13T23:25:49.183Z,99.90
2018-09-13T23:28:18.384Z,99.90
2018-09-13T23:30:47.423Z,99.90
2018-09-13T23:33:16.344Z,99.90
2018-09-13T23:35:45.327Z,99.90
2018-09-13T23:38:14.305Z,99.90
2018-09-13T23:40:43.575Z,99.90
2018-09-13T23:43:12.475Z,99.90
2018-09-13T23:45:41.348Z,99.90
2018-09-13T23:48:10.276Z,99.90
2018-09-13T23:50:39.144Z,99.90
2018-09-13T23:53:08.203Z,99.90
2018-09-13T23:55:37.152Z,99.90
2018-09-13T23:58:06.260Z,99.90
